MMPN/UPN METAR and TAF weather

Enter ICAO airport designator
Station Type Date Time Source
MMPN METAR 2020/07/14 23:42 UTC NOAA

MMPN 142342Z 27006KT 7SM FEW030CB OVC270 26/15 A3014 RMK 8/307 HZY


Station Type Date Time Source
MMPN Decoded METAR 2020/07/14 23:42 UTC NOAA

Uruapan / Gen Rayon, Mexico (MMPN) 19-24N 102-02W
Jul 14, 2020 - 07:42 PM EDT / 2020.07.14 2342 UTC
Wind: from the W (270 degrees) at 7 MPH (6 KT):0
Visibility: 7 mile(s):0
Sky conditions: overcast
Weather: Cumulonimbus clouds observed
Temperature: 78 F (26 C)
Dew Point: 59 F (15 C)
Relative Humidity: 50%
Pressure (altimeter): 30.14 in. Hg (1020 hPa)
ob: MMPN 142342Z 27006KT 7SM FEW030CB OVC270 26/15 A3014 RMK 8/307 HZY
cycle: 23

Station Type Date Time Source
MMPN TAF 2020/07/14 21:57 UTC NOAA

TAF
AMD MMPN 142057Z 1421/1518 29025KT P6SM RA BKN040CB BKN280
TEMPO 1422/1502 4SM TSRA
FM150300 00000KT P6SM SCT020 BKN280
BECMG 1516/1517 21006KT SKC

Example: see airport list